createdAt,value
2023-03-18T00:01:39.123Z,100627.50
2023-03-18T00:04:45.032Z,100631.75
2023-03-18T00:07:50.040Z,100619.31
2023-03-18T00:10:56.084Z,100623.87
2023-03-18T00:14:02.023Z,100624.48
2023-03-18T00:17:08.110Z,100621.27
2023-03-18T00:20:13.632Z,100618.31
2023-03-18T00:23:22.200Z,100628.50
2023-03-18T00:26:27.159Z,100627.30
2023-03-18T00:29:33.348Z,100628.94
2023-03-18T00:32:40.934Z,100618.20
2023-03-18T00:35:47.300Z,100624.59
2023-03-18T00:38:53.426Z,100623.34
2023-03-18T00:42:00.091Z,100633.30
2023-03-18T00:45:05.833Z,100624.02
2023-03-18T00:48:14.209Z,100623.41
2023-03-18T00:51:20.944Z,100627.44
2023-03-18T00:54:28.153Z,100620.48
2023-03-18T00:57:34.204Z,100622.88
2023-03-18T01:29:08.383Z,100632.67
2023-03-18T01:32:18.142Z,100629.72
2023-03-18T01:35:25.334Z,100637.84
2023-03-18T01:38:30.960Z,100640.91
2023-03-18T01:41:43.455Z,100631.59
2023-03-18T01:44:53.585Z,100652.38
2023-03-18T01:47:59.962Z,100631.73
2023-03-18T01:51:23.146Z,100638.73
2023-03-18T01:54:28.078Z,100638.03
2023-03-18T01:57:35.197Z,100635.44
2023-03-18T02:00:40.168Z,100631.88
2023-03-18T02:03:49.404Z,100645.92
2023-03-18T02:06:55.941Z,100643.97
2023-03-18T02:09:55.438Z,100648.14
2023-03-18T02:12:52.779Z,100644.70
2023-03-18T02:16:10.279Z,100647.17
2023-03-18T02:19:20.655Z,100642.64
2023-03-18T02:22:55.444Z,100645.41
2023-03-18T02:26:35.177Z,100652.54
2023-03-18T02:29:45.522Z,100646.27
2023-03-18T02:32:51.087Z,100663.92
2023-03-18T02:35:59.000Z,100670.19
2023-03-18T02:39:07.805Z,100667.36
2023-03-18T02:42:13.730Z,100670.43
2023-03-18T02:45:23.958Z,100673.66
2023-03-18T02:48:32.956Z,100665.28
2023-03-18T02:51:39.245Z,100668.84
2023-03-18T02:54:45.102Z,100672.14
2023-03-18T02:57:50.551Z,100667.72
2023-03-18T03:00:56.287Z,100667.98
2023-03-18T03:04:03.550Z,100665.17
2023-03-18T03:07:10.291Z,100674.49
2023-03-18T03:10:20.781Z,100671.94
2023-03-18T03:13:27.461Z,100661.71
2023-03-18T03:16:34.985Z,100662.70
2023-03-18T03:19:41.452Z,100667.63
2023-03-18T03:22:49.079Z,100672.52
2023-03-18T03:25:54.236Z,100674.75
2023-03-18T03:29:01.039Z,100672.42
2023-03-18T03:32:06.986Z,100677.85
2023-03-18T03:35:15.669Z,100672.16
2023-03-18T03:38:20.882Z,100673.52
2023-03-18T03:41:26.714Z,100674.63
2023-03-18T03:44:32.440Z,100678.19
2023-03-18T03:47:38.951Z,100682.13
2023-03-18T03:50:45.538Z,100679.69
2023-03-18T03:53:53.616Z,100685.46
2023-03-18T03:57:01.485Z,100700.98
2023-03-18T04:00:07.181Z,100686.11
2023-03-18T04:03:13.302Z,100689.33
2023-03-18T04:06:19.697Z,100689.42
2023-03-18T04:09:27.478Z,100689.69
2023-03-18T04:12:35.108Z,100680.70
2023-03-18T04:15:41.466Z,100689.06
2023-03-18T04:18:49.647Z,100686.59
2023-03-18T04:21:55.291Z,100682.30
2023-03-18T04:25:01.382Z,100691.64
2023-03-18T04:28:07.806Z,100694.61
2023-03-18T04:31:13.669Z,100701.25
2023-03-18T04:34:20.838Z,100709.59
2023-03-18T04:37:27.850Z,100700.89
2023-03-18T04:40:32.769Z,100706.05
2023-03-18T04:43:40.500Z,100709.38
2023-03-18T04:46:46.622Z,100710.73
2023-03-18T04:49:53.012Z,100728.78
2023-03-18T04:52:59.502Z,100721.30
2023-03-18T04:56:07.058Z,100710.34
2023-03-18T04:59:07.812Z,100720.20
2023-03-18T05:02:16.282Z,100711.69
2023-03-18T05:05:21.978Z,100736.80
2023-03-18T05:08:27.386Z,100720.82
2023-03-18T05:11:34.042Z,100721.28
2023-03-18T05:14:48.607Z,100726.59
2023-03-18T05:17:54.852Z,100723.25
2023-03-18T05:21:02.251Z,100724.85
2023-03-18T05:24:08.162Z,100730.16
2023-03-18T05:27:15.224Z,100730.23
2023-03-18T05:30:24.027Z,100736.75
2023-03-18T05:33:31.348Z,100732.97
2023-03-18T05:36:36.770Z,100746.63
2023-03-18T05:39:45.067Z,100748.19
2023-03-18T05:42:56.152Z,100748.19
2023-03-18T05:46:08.380Z,100750.30
2023-03-18T05:49:15.725Z,100748.43
2023-03-18T05:52:24.491Z,100763.69
2023-03-18T05:55:32.013Z,100754.96
2023-03-18T05:58:38.546Z,100742.98
2023-03-18T06:01:39.337Z,100752.19
2023-03-18T06:04:27.368Z,100751.99
2023-03-18T06:07:20.265Z,100758.47
2023-03-18T06:10:08.167Z,100765.95
2023-03-18T06:13:02.929Z,100756.54
2023-03-18T06:15:49.805Z,100756.05
2023-03-18T06:18:42.701Z,100767.27
2023-03-18T06:21:39.822Z,100766.00
2023-03-18T06:24:47.890Z,100778.23
2023-03-18T06:27:54.611Z,100777.22
2023-03-18T06:30:59.691Z,100774.62
2023-03-18T06:34:05.656Z,100772.87
2023-03-18T06:37:11.150Z,100778.47
2023-03-18T06:40:17.237Z,100785.20
2023-03-18T06:43:24.177Z,100779.91
2023-03-18T06:46:30.446Z,100789.06
2023-03-18T06:49:36.692Z,100779.72
2023-03-18T06:52:44.580Z,100777.89
2023-03-18T06:55:52.582Z,100779.96
2023-03-18T06:58:59.813Z,100778.98
2023-03-18T07:02:06.855Z,100773.33
2023-03-18T07:05:11.405Z,100779.72
2023-03-18T07:08:17.678Z,100790.94
2023-03-18T07:11:24.180Z,100788.58
2023-03-18T07:14:32.887Z,100782.32
2023-03-18T07:17:38.433Z,100783.77
2023-03-18T07:20:44.194Z,100791.41
2023-03-18T07:23:50.105Z,100799.90
2023-03-18T07:26:57.148Z,100784.27
2023-03-18T07:30:04.611Z,100790.90
2023-03-18T07:33:10.493Z,100800.89
2023-03-18T07:36:17.446Z,100805.45
2023-03-18T07:39:23.309Z,100802.13
2023-03-18T07:42:29.611Z,100804.58
2023-03-18T07:45:36.025Z,100802.25
2023-03-18T07:48:41.640Z,100800.64
2023-03-18T07:51:48.349Z,100803.94
2023-03-18T07:54:54.500Z,100801.98
2023-03-18T07:58:00.749Z,100812.30
2023-03-18T08:01:07.476Z,100822.41
2023-03-18T08:04:12.699Z,100805.91
2023-03-18T08:07:20.103Z,100809.59
2023-03-18T08:10:26.771Z,100810.83
2023-03-18T08:13:33.370Z,100811.19
2023-03-18T08:16:38.061Z,100808.22
2023-03-18T08:19:42.841Z,100804.24
2023-03-18T08:22:50.067Z,100811.99
2023-03-18T08:25:58.115Z,100818.80
2023-03-18T08:29:05.158Z,100818.16
2023-03-18T08:32:10.732Z,100811.99
2023-03-18T08:35:16.646Z,100807.88
2023-03-18T08:38:23.053Z,100816.15
2023-03-18T08:41:29.363Z,100831.78
2023-03-18T08:44:35.939Z,100832.69
2023-03-18T08:47:42.328Z,100817.87
2023-03-18T08:50:50.525Z,100836.03
2023-03-18T08:53:56.234Z,100825.30
2023-03-18T08:57:03.580Z,100819.52
2023-03-18T09:00:08.426Z,100827.00
2023-03-18T09:03:16.020Z,100818.58
2023-03-18T09:06:23.136Z,100822.60
2023-03-18T09:09:42.669Z,100830.78
2023-03-18T09:12:36.150Z,100823.09
2023-03-18T09:15:41.486Z,100837.55
2023-03-18T09:18:48.923Z,100823.59
2023-03-18T09:21:55.167Z,100832.14
2023-03-18T09:25:01.877Z,100836.49
2023-03-18T09:28:07.695Z,100842.81
2023-03-18T09:31:14.184Z,100840.78
2023-03-18T09:34:21.228Z,100839.67
2023-03-18T09:37:26.864Z,100840.89
2023-03-18T09:40:50.219Z,100839.52
2023-03-18T09:44:04.099Z,100831.70
2023-03-18T09:47:53.926Z,100835.16
2023-03-18T09:51:07.521Z,100841.86
2023-03-18T09:54:47.096Z,100841.86
2023-03-18T09:57:50.882Z,100842.47
2023-03-18T10:00:47.736Z,100853.59
2023-03-18T10:04:01.716Z,100843.98
2023-03-18T10:07:30.777Z,100833.11
2023-03-18T10:10:43.151Z,100836.69
2023-03-18T10:14:08.954Z,100835.28
2023-03-18T10:17:31.464Z,100835.06
2023-03-18T10:20:51.857Z,100834.92
2023-03-18T10:24:30.106Z,100844.24
2023-03-18T10:28:03.773Z,100827.64
2023-03-18T10:31:25.692Z,100826.36
2023-03-18T10:34:36.262Z,100827.47
2023-03-18T10:38:04.793Z,100826.58
2023-03-18T10:41:11.158Z,100829.72
2023-03-18T10:44:39.611Z,100824.00
2023-03-18T10:47:48.019Z,100827.83
2023-03-18T10:50:58.328Z,100821.30
2023-03-18T10:54:30.228Z,100823.43
2023-03-18T10:57:36.558Z,100814.30
2023-03-18T11:00:47.033Z,100831.53
2023-03-18T11:04:06.052Z,100818.47
2023-03-18T11:07:17.496Z,100816.08
2023-03-18T11:10:30.287Z,100811.91
2023-03-18T11:13:37.392Z,100815.86
2023-03-18T11:16:56.093Z,100808.83
2023-03-18T11:20:04.448Z,100805.32
2023-03-18T11:23:12.523Z,100809.39
2023-03-18T11:26:19.192Z,100799.52
2023-03-18T11:29:20.743Z,100802.75
2023-03-18T11:32:44.524Z,100796.31
2023-03-18T11:36:13.636Z,100795.49
2023-03-18T11:39:19.816Z,100813.86
2023-03-18T11:42:36.254Z,100802.63
2023-03-18T11:46:07.113Z,100809.48
2023-03-18T11:49:12.882Z,100805.85
2023-03-18T11:52:28.741Z,100798.42
2023-03-18T11:55:42.373Z,100807.77
2023-03-18T11:59:36.459Z,100801.28
2023-03-18T12:02:54.782Z,100800.02
2023-03-18T12:06:36.440Z,100799.81
2023-03-18T12:10:07.482Z,100804.85
2023-03-18T12:13:18.790Z,100796.16
2023-03-18T12:16:46.371Z,100803.91
2023-03-18T12:20:22.068Z,100797.70
2023-03-18T12:24:15.064Z,100799.48
2023-03-18T12:27:38.865Z,100797.02
2023-03-18T12:30:58.305Z,100790.77
2023-03-18T12:34:18.928Z,100792.48
2023-03-18T12:37:44.332Z,100802.63
2023-03-18T12:41:21.111Z,100785.53
2023-03-18T12:44:43.535Z,100787.64
2023-03-18T12:48:12.274Z,100784.52
2023-03-18T12:51:33.299Z,100786.16
2023-03-18T12:54:46.190Z,100791.27
2023-03-18T12:58:03.014Z,100783.09
2023-03-18T13:01:25.399Z,100784.80
2023-03-18T13:04:29.440Z,100797.50
2023-03-18T13:07:24.244Z,100781.93
2023-03-18T13:10:32.015Z,100782.77
2023-03-18T13:13:24.699Z,100777.53
2023-03-18T13:16:32.632Z,100772.25
2023-03-18T13:19:38.749Z,100772.27
2023-03-18T13:23:08.823Z,100769.69
2023-03-18T13:26:26.031Z,100761.11
2023-03-18T13:30:04.969Z,100783.25
2023-03-18T13:33:54.449Z,100775.13
2023-03-18T13:37:17.823Z,100778.69
2023-03-18T13:40:57.448Z,100766.02
2023-03-18T13:43:58.418Z,100765.77
2023-03-18T13:46:45.074Z,100779.57
2023-03-18T13:49:39.748Z,100757.72
2023-03-18T13:52:50.302Z,100767.64
2023-03-18T13:55:56.788Z,100757.74
2023-03-18T13:59:02.198Z,100762.83
2023-03-18T14:02:08.105Z,100767.43
2023-03-18T14:05:14.670Z,100757.50
2023-03-18T14:08:57.782Z,100765.54
2023-03-18T14:12:05.972Z,100770.50
2023-03-18T14:15:31.069Z,100762.56
2023-03-18T14:18:39.464Z,100753.97
2023-03-18T14:21:47.421Z,100761.88
2023-03-18T14:24:55.081Z,100773.89
2023-03-18T14:28:04.210Z,100768.16
2023-03-18T14:31:14.187Z,100763.44
2023-03-18T14:34:30.828Z,100765.38
2023-03-18T14:37:35.925Z,100774.42
2023-03-18T14:40:40.316Z,100770.64
2023-03-18T14:43:58.095Z,100779.64
2023-03-18T14:47:05.889Z,100777.59
2023-03-18T14:50:31.089Z,100776.89
2023-03-18T14:53:49.434Z,100787.00
2023-03-18T14:56:56.251Z,100795.34
2023-03-18T15:00:02.225Z,100795.36
2023-03-18T15:03:19.203Z,100805.56
2023-03-18T15:06:28.181Z,100794.75
2023-03-18T15:09:42.054Z,100797.17
2023-03-18T15:12:48.233Z,100805.00
2023-03-18T15:15:54.262Z,100802.22
2023-03-18T15:19:01.974Z,100811.98
2023-03-18T15:22:09.735Z,100810.72
2023-03-18T15:25:20.217Z,100815.69
2023-03-18T15:28:36.492Z,100818.94
2023-03-18T15:31:45.150Z,100828.40
2023-03-18T15:34:51.600Z,100818.33
2023-03-18T15:37:58.656Z,100827.69
2023-03-18T15:41:06.864Z,100844.29
2023-03-18T15:44:12.562Z,100836.66
2023-03-18T15:47:31.169Z,100843.33
2023-03-18T15:50:43.496Z,100845.05
2023-03-18T15:53:57.486Z,100850.99
2023-03-18T15:57:04.368Z,100851.98
2023-03-18T16:00:13.707Z,100850.90
2023-03-18T16:03:24.301Z,100856.82
2023-03-18T16:06:30.167Z,100850.95
2023-03-18T16:09:41.399Z,100857.70
2023-03-18T16:12:48.208Z,100858.70
2023-03-18T16:15:53.471Z,100860.81
2023-03-18T16:18:59.582Z,100860.43
2023-03-18T16:22:11.094Z,100864.96
2023-03-18T16:25:16.671Z,100863.86
2023-03-18T16:28:23.283Z,100867.33
2023-03-18T16:31:29.421Z,100871.02
2023-03-18T16:34:35.120Z,100881.00
2023-03-18T16:37:40.627Z,100877.80
2023-03-18T16:40:47.606Z,100877.33
2023-03-18T16:43:56.242Z,100876.23
2023-03-18T16:47:04.850Z,100878.19
2023-03-18T16:50:09.800Z,100868.33
2023-03-18T16:53:17.497Z,100871.03
2023-03-18T16:56:33.010Z,100877.09
2023-03-18T16:59:38.301Z,100874.50
2023-03-18T17:02:48.911Z,100873.14
2023-03-18T17:05:57.633Z,100866.98
2023-03-18T17:09:04.419Z,100879.91
2023-03-18T17:12:20.957Z,100875.86
2023-03-18T17:15:27.659Z,100877.95
2023-03-18T17:18:35.857Z,100875.10
2023-03-18T17:21:41.433Z,100895.05
2023-03-18T17:24:48.014Z,100882.87
2023-03-18T17:28:03.748Z,100889.16
2023-03-18T17:31:03.478Z,100889.77
2023-03-18T17:33:56.876Z,100884.47
2023-03-18T17:37:03.660Z,100883.35
2023-03-18T17:40:10.444Z,100880.80
2023-03-18T17:43:16.008Z,100880.91
2023-03-18T17:46:22.768Z,100883.63
2023-03-18T17:49:29.682Z,100886.34
2023-03-18T17:52:35.418Z,100884.25
2023-03-18T17:55:41.453Z,100891.50
2023-03-18T17:58:48.332Z,100887.69
2023-03-18T18:01:54.300Z,100891.75
2023-03-18T18:05:01.023Z,100892.11
2023-03-18T18:08:06.766Z,100892.23
2023-03-18T18:11:35.953Z,100896.30
2023-03-18T18:14:43.186Z,100890.89
2023-03-18T18:17:48.182Z,100893.72
2023-03-18T18:20:53.488Z,100890.66
2023-03-18T18:23:59.756Z,100889.89
2023-03-18T18:27:05.719Z,100894.58
2023-03-18T18:30:11.225Z,100891.88
2023-03-18T18:33:19.744Z,100900.86
2023-03-18T18:36:25.670Z,100893.72
2023-03-18T18:39:31.180Z,100894.95
2023-03-18T18:42:37.232Z,100888.05
2023-03-18T18:45:42.911Z,100902.67
2023-03-18T18:48:49.643Z,100895.31
2023-03-18T18:51:55.525Z,100894.19
2023-03-18T18:55:01.559Z,100897.98
2023-03-18T18:58:07.045Z,100899.34
2023-03-18T19:01:13.553Z,100892.56
2023-03-18T19:04:18.965Z,100897.11
2023-03-18T19:07:25.137Z,100895.03
2023-03-18T19:10:25.849Z,100898.83
2023-03-18T19:13:23.974Z,100901.16
2023-03-18T19:16:40.486Z,100898.33
2023-03-18T19:19:48.912Z,100894.98
2023-03-18T19:22:54.932Z,100893.27
2023-03-18T19:26:00.635Z,100893.84
2023-03-18T19:29:06.178Z,100885.14
2023-03-18T19:32:13.270Z,100888.44
2023-03-18T19:35:20.005Z,100888.41
2023-03-18T19:38:32.277Z,100885.70
2023-03-18T19:41:37.772Z,100881.41
2023-03-18T19:44:43.791Z,100883.85
2023-03-18T19:47:45.587Z,100877.09
2023-03-18T19:50:51.534Z,100877.94
2023-03-18T19:54:01.235Z,100888.05
2023-03-18T19:57:10.734Z,100883.63
2023-03-18T20:00:17.718Z,100870.94
2023-03-18T20:03:30.026Z,100869.95
2023-03-18T20:06:36.637Z,100869.59
2023-03-18T20:09:42.878Z,100871.54
2023-03-18T20:12:51.555Z,100870.45
2023-03-18T20:15:58.377Z,100865.39
2023-03-18T20:19:03.894Z,100860.11
2023-03-18T20:22:09.471Z,100857.03
2023-03-18T20:25:17.459Z,100859.22
2023-03-18T20:28:27.958Z,100858.44
2023-03-18T20:31:33.624Z,100850.59
2023-03-18T20:34:41.680Z,100850.59
2023-03-18T20:37:47.870Z,100847.25
2023-03-18T20:40:56.262Z,100849.34
2023-03-18T20:44:02.979Z,100846.14
2023-03-18T20:47:08.681Z,100839.28
2023-03-18T20:50:15.638Z,100842.61
2023-03-18T20:53:34.371Z,100827.83
2023-03-18T20:56:41.528Z,100829.81
2023-03-18T20:59:49.264Z,100836.44
2023-03-18T21:02:55.927Z,100828.81
2023-03-18T21:06:03.900Z,100827.09
2023-03-18T21:09:11.746Z,100822.91
2023-03-18T21:12:17.979Z,100830.89
2023-03-18T21:15:40.820Z,100825.61
2023-03-18T21:18:48.981Z,100821.69
2023-03-18T21:21:55.029Z,100817.72
2023-03-18T21:25:00.813Z,100817.63
2023-03-18T21:28:07.123Z,100816.77
2023-03-18T21:31:13.661Z,100817.63
2023-03-18T21:34:19.798Z,100809.38
2023-03-18T21:37:30.752Z,100803.95
2023-03-18T21:40:37.361Z,100816.77
2023-03-18T21:43:52.047Z,100810.23
2023-03-18T21:46:58.539Z,100808.73
2023-03-18T21:50:04.618Z,100803.06
2023-03-18T21:53:10.500Z,100799.36
2023-03-18T21:56:16.143Z,100793.99
2023-03-18T21:59:21.889Z,100800.27
2023-03-18T22:02:47.225Z,100796.56
2023-03-18T22:05:55.743Z,100802.07
2023-03-18T22:09:03.628Z,100800.84
2023-03-18T22:12:10.691Z,100798.28
2023-03-18T22:15:16.130Z,100794.31
2023-03-18T22:18:21.193Z,100794.58
2023-03-18T22:21:34.263Z,100794.31
2023-03-18T22:24:41.587Z,100794.45
2023-03-18T22:27:46.557Z,100792.11
2023-03-18T22:30:53.074Z,100794.31
2023-03-18T22:33:58.755Z,100788.67
2023-03-18T22:37:05.693Z,100790.38
2023-03-18T22:40:11.654Z,100790.66
2023-03-18T22:43:17.554Z,100791.38
2023-03-18T22:46:23.410Z,100786.69
2023-03-18T22:49:29.261Z,100789.27
2023-03-18T22:52:45.787Z,100787.45
2023-03-18T22:55:52.461Z,100785.47
2023-03-18T22:58:58.123Z,100782.63
2023-03-18T23:02:04.080Z,100782.05
2023-03-18T23:05:10.565Z,100780.83
2023-03-18T23:08:16.944Z,100777.93
2023-03-18T23:11:23.905Z,100777.34
2023-03-18T23:14:23.643Z,100774.03
2023-03-18T23:17:31.955Z,100769.60
2023-03-18T23:20:37.761Z,100774.03
2023-03-18T23:23:43.881Z,100776.86
2023-03-18T23:26:49.605Z,100777.27
2023-03-18T23:29:56.582Z,100778.71
2023-03-18T23:33:02.666Z,100768.38
2023-03-18T23:36:10.073Z,100768.65
2023-03-18T23:39:16.395Z,100755.98
2023-03-18T23:42:22.285Z,100764.46
2023-03-18T23:45:30.989Z,100752.78
2023-03-18T23:48:38.550Z,100753.38
2023-03-18T23:51:44.840Z,100756.21
2023-03-18T23:54:50.927Z,100751.30
2023-03-18T23:57:56.813Z,100754.98
